Time;durP1;ratioP1;P1;durP2;ratioP2;P2;SDS_P1;SDS_P2;PMS_P1;PMS_P2;Temp;Humidity;BMP_temperature;BMP_pressure;BME280_temperature;BME280_humidity;BME280_pressure;Samples;Min_cycle;Max_cycle;Signal;HPM_P1;HPM_P2
2024/01/22 00:00:43;;;;;;;5.83;2.47;;;;;;;;;;5053146;28;20436;-64
2024/01/22 00:03:09;;;;;;;5.73;2.40;;;;;;;;;;5051956;28;20398;-64
2024/01/22 00:05:35;;;;;;;5.72;2.70;;;;;;;;;;5052699;28;20444;-64
2024/01/22 00:08:02;;;;;;;6.33;2.50;;;;;;;;;;5052858;28;20402;-64
2024/01/22 00:10:27;;;;;;;5.83;2.47;;;;;;;;;;5051925;28;20404;-64
2024/01/22 00:12:52;;;;;;;5.53;2.60;;;;;;;;;;5053161;28;20405;-64
2024/01/22 00:15:18;;;;;;;5.00;2.30;;;;;;;;;;5052789;28;20397;-64
2024/01/22 00:17:43;;;;;;;6.00;2.57;;;;;;;;;;5051821;28;20397;-64
2024/01/22 00:20:08;;;;;;;5.50;2.40;;;;;;;;;;5052834;28;20433;-64
2024/01/22 00:22:34;;;;;;;6.38;2.42;;;;;;;;;;5052786;28;20405;-64
2024/01/22 00:24:59;;;;;;;5.13;2.50;;;;;;;;;;5052078;28;20405;-64
2024/01/22 00:27:24;;;;;;;6.17;2.40;;;;;;;;;;5052327;28;20425;-64
2024/01/22 00:29:49;;;;;;;5.53;2.30;;;;;;;;;;5053078;28;20399;-64
2024/01/22 00:32:15;;;;;;;5.67;2.63;;;;;;;;;;5051060;28;20416;-64
2024/01/22 00:34:40;;;;;;;5.10;2.30;;;;;;;;;;5053038;28;20401;-64
2024/01/22 00:37:05;;;;;;;6.47;2.70;;;;;;;;;;5052211;28;20796;-64
2024/01/22 00:39:31;;;;;;;5.87;2.50;;;;;;;;;;5051931;28;20389;-64
2024/01/22 00:41:56;;;;;;;5.35;2.35;;;;;;;;;;5052654;28;20405;-64
2024/01/22 00:44:22;;;;;;;6.00;2.40;;;;;;;;;;5052149;28;20412;-64
2024/01/22 00:46:47;;;;;;;5.33;2.30;;;;;;;;;;5051392;28;20398;-64
2024/01/22 00:49:13;;;;;;;5.93;2.57;;;;;;;;;;5051973;28;20401;-64
2024/01/22 00:51:38;;;;;;;5.13;2.23;;;;;;;;;;5052409;28;20488;-64
2024/01/22 00:54:03;;;;;;;5.03;2.33;;;;;;;;;;5051192;28;20398;-64
2024/01/22 00:56:28;;;;;;;4.27;2.20;;;;;;;;;;5052219;28;20999;-64
2024/01/22 00:58:54;;;;;;;4.53;2.10;;;;;;;;;;5034507;28;20480;-64
2024/01/22 01:01:19;;;;;;;4.50;2.03;;;;;;;;;;5051277;28;20405;-64
2024/01/22 01:03:44;;;;;;;5.00;2.00;;;;;;;;;;5051944;28;20401;-64
2024/01/22 01:06:09;;;;;;;5.33;2.23;;;;;;;;;;5050998;28;20417;-64
2024/01/22 01:08:35;;;;;;;5.10;2.20;;;;;;;;;;5051920;28;20405;-64
2024/01/22 01:11:00;;;;;;;4.63;2.20;;;;;;;;;;5051950;28;20428;-64
2024/01/22 01:13:25;;;;;;;5.53;2.30;;;;;;;;;;5066082;28;20394;-64
2024/01/22 01:15:51;;;;;;;4.95;2.20;;;;;;;;;;5052132;28;20456;-63
2024/01/22 01:18:16;;;;;;;6.20;2.17;;;;;;;;;;5050994;28;20926;-64
2024/01/22 01:20:41;;;;;;;5.43;2.20;;;;;;;;;;5051425;28;20439;-64
2024/01/22 01:23:07;;;;;;;6.43;2.30;;;;;;;;;;5051122;28;20524;-64
2024/01/22 01:25:33;;;;;;;4.37;2.00;;;;;;;;;;5051663;28;20392;-63
2024/01/22 01:27:58;;;;;;;4.28;2.40;;;;;;;;;;5050854;28;20496;-64
2024/01/22 01:30:24;;;;;;;5.13;2.10;;;;;;;;;;5051414;28;20476;-64
2024/01/22 01:32:49;;;;;;;4.57;1.93;;;;;;;;;;5051476;28;20447;-63
2024/01/22 01:35:14;;;;;;;5.53;2.10;;;;;;;;;;5050297;28;20433;-64
2024/01/22 01:37:40;;;;;;;5.77;2.13;;;;;;;;;;5051791;28;20459;-64
2024/01/22 01:40:05;;;;;;;5.03;2.10;;;;;;;;;;5051069;28;20896;-64
2024/01/22 01:42:30;;;;;;;3.90;2.03;;;;;;;;;;5050711;28;20485;-64
2024/01/22 01:44:56;;;;;;;4.93;1.93;;;;;;;;;;5051361;28;20412;-64
2024/01/22 01:47:21;;;;;;;5.05;2.13;;;;;;;;;;5050780;28;20394;-64
2024/01/22 01:49:46;;;;;;;4.90;2.00;;;;;;;;;;5050202;28;20437;-64
2024/01/22 01:52:12;;;;;;;5.37;2.00;;;;;;;;;;5033340;28;20433;-64
2024/01/22 01:54:38;;;;;;;4.63;2.10;;;;;;;;;;5051015;28;20401;-64
2024/01/22 01:57:04;;;;;;;4.90;1.85;;;;;;;;;;5032389;28;20859;-64
2024/01/22 01:59:29;;;;;;;5.20;2.00;;;;;;;;;;5033409;28;20446;-64
2024/01/22 02:01:54;;;;;;;5.17;1.90;;;;;;;;;;5033507;28;20390;-63
2024/01/22 02:04:19;;;;;;;3.17;1.80;;;;;;;;;;5049223;28;20385;-64
2024/01/22 02:06:45;;;;;;;5.00;1.77;;;;;;;;;;5051181;28;20473;-63
2024/01/22 02:09:10;;;;;;;4.93;2.03;;;;;;;;;;5050316;28;20405;-64
2024/01/22 02:11:35;;;;;;;5.20;1.77;;;;;;;;;;5050446;28;20409;-64
2024/01/22 02:14:01;;;;;;;4.20;1.93;;;;;;;;;;5032592;28;20865;-64
2024/01/22 02:16:26;;;;;;;4.60;1.70;;;;;;;;;;5050329;28;20421;-64
2024/01/22 02:18:51;;;;;;;4.27;1.70;;;;;;;;;;5050704;28;20881;-64
2024/01/22 02:21:16;;;;;;;3.67;1.73;;;;;;;;;;5050327;28;20587;-64
2024/01/22 02:23:42;;;;;;;4.18;1.50;;;;;;;;;;5049944;28;20487;-64
2024/01/22 02:26:07;;;;;;;2.87;1.63;;;;;;;;;;5050210;28;20484;-64
2024/01/22 02:28:32;;;;;;;3.33;1.50;;;;;;;;;;5051002;28;20406;-64
2024/01/22 02:30:58;;;;;;;3.33;1.50;;;;;;;;;;5049575;28;20491;-64
2024/01/22 02:33:23;;;;;;;3.90;1.55;;;;;;;;;;5050176;28;20386;-64
2024/01/22 02:35:48;;;;;;;3.17;1.60;;;;;;;;;;5050433;28;20437;-64
2024/01/22 02:38:14;;;;;;;2.77;1.50;;;;;;;;;;5049623;28;20394;-64
2024/01/22 02:40:39;;;;;;;4.00;1.53;;;;;;;;;;5050498;28;20393;-64
2024/01/22 02:43:04;;;;;;;4.07;1.60;;;;;;;;;;5050478;28;20943;-64
2024/01/22 02:45:30;;;;;;;3.00;1.50;;;;;;;;;;5031889;28;20416;-64
2024/01/22 02:47:55;;;;;;;3.28;1.60;;;;;;;;;;5050594;28;20429;-64
2024/01/22 02:50:20;;;;;;;4.80;1.53;;;;;;;;;;5049737;28;20477;-63
2024/01/22 02:52:45;;;;;;;3.00;1.33;;;;;;;;;;5050000;28;20398;-64
2024/01/22 02:55:11;;;;;;;4.13;1.47;;;;;;;;;;5049815;28;20402;-64
2024/01/22 02:57:36;;;;;;;5.70;1.60;;;;;;;;;;5050725;28;20394;-65
2024/01/22 03:00:02;;;;;;;3.90;1.70;;;;;;;;;;5049057;28;20398;-66
2024/01/22 03:02:28;;;;;;;3.45;1.50;;;;;;;;;;5050435;28;20386;-66
2024/01/22 03:04:53;;;;;;;3.93;1.47;;;;;;;;;;5033664;28;20414;-67
2024/01/22 03:07:18;;;;;;;3.30;1.73;;;;;;;;;;5019022;28;20462;-67
2024/01/22 03:09:43;;;;;;;5.07;1.80;;;;;;;;;;5018892;28;20387;-67
2024/01/22 03:12:09;;;;;;;4.40;1.50;;;;;;;;;;5012093;28;20844;-67
2024/01/22 03:14:34;;;;;;;4.30;1.58;;;;;;;;;;5017931;28;20395;-68
2024/01/22 03:16:59;;;;;;;3.37;1.40;;;;;;;;;;5033513;28;20397;-67
2024/01/22 03:19:25;;;;;;;3.60;1.23;;;;;;;;;;5039650;28;20398;-67
2024/01/22 03:21:50;;;;;;;3.77;1.50;;;;;;;;;;5028892;28;20991;-67
2024/01/22 03:24:15;;;;;;;2.93;1.30;;;;;;;;;;5020231;28;20449;-66
2024/01/22 03:26:41;;;;;;;2.40;1.30;;;;;;;;;;5019830;28;20387;-66
2024/01/22 03:29:06;;;;;;;3.57;1.60;;;;;;;;;;5039359;28;20808;-66
2024/01/22 03:31:32;;;;;;;3.10;1.40;;;;;;;;;;5039714;28;20555;-67
2024/01/22 03:33:57;;;;;;;3.83;1.50;;;;;;;;;;5031663;28;20828;-66
2024/01/22 03:36:23;;;;;;;3.40;1.70;;;;;;;;;;5031064;28;20389;-66
2024/01/22 03:38:48;;;;;;;3.20;1.40;;;;;;;;;;5022412;28;20399;-67
2024/01/22 03:41:14;;;;;;;2.90;1.40;;;;;;;;;;5034188;28;20403;-66
2024/01/22 03:43:41;;;;;;;3.13;1.33;;;;;;;;;;5023984;28;20391;-66
2024/01/22 03:46:06;;;;;;;2.95;1.40;;;;;;;;;;5023647;28;20408;-66
2024/01/22 03:48:31;;;;;;;2.77;1.30;;;;;;;;;;5023133;28;20413;-66
2024/01/22 03:50:57;;;;;;;2.97;1.30;;;;;;;;;;5023542;28;20399;-66
2024/01/22 03:53:22;;;;;;;2.23;1.30;;;;;;;;;;5042619;28;20389;-66
2024/01/22 03:55:47;;;;;;;3.92;1.40;;;;;;;;;;5037448;28;20982;-66
2024/01/22 03:58:12;;;;;;;3.03;1.50;;;;;;;;;;5034356;28;20400;-67
2024/01/22 04:00:38;;;;;;;2.50;1.30;;;;;;;;;;5017360;28;20407;-67
2024/01/22 04:03:03;;;;;;;3.30;1.60;;;;;;;;;;5019365;28;20399;-67
2024/01/22 04:05:29;;;;;;;3.53;1.40;;;;;;;;;;5027320;28;20399;-67
2024/01/22 04:07:54;;;;;;;2.40;1.50;;;;;;;;;;5047348;28;20409;-67
2024/01/22 04:10:19;;;;;;;2.97;1.50;;;;;;;;;;5052082;28;20386;-68
2024/01/22 04:12:45;;;;;;;2.63;1.40;;;;;;;;;;5045582;28;20410;-67
2024/01/22 04:15:10;;;;;;;3.57;1.60;;;;;;;;;;5051854;28;20385;-67
2024/01/22 04:17:36;;;;;;;2.88;1.40;;;;;;;;;;5052329;28;20404;-67
2024/01/22 04:20:01;;;;;;;2.97;1.50;;;;;;;;;;5052969;28;20947;-67
2024/01/22 04:22:27;;;;;;;3.10;1.23;;;;;;;;;;5052328;28;20397;-67
2024/01/22 04:24:52;;;;;;;2.27;1.40;;;;;;;;;;5052324;28;20393;-67
2024/01/22 04:27:17;;;;;;;3.10;1.40;;;;;;;;;;5052467;28;20923;-67
2024/01/22 04:29:43;;;;;;;2.50;1.40;;;;;;;;;;5053095;28;20415;-67
2024/01/22 04:32:08;;;;;;;2.60;1.40;;;;;;;;;;5051517;28;20405;-67
2024/01/22 04:34:35;;;;;;;3.63;1.30;;;;;;;;;;5053124;28;20478;-67
2024/01/22 04:37:00;;;;;;;2.50;1.33;;;;;;;;;;5051209;28;20469;-67
2024/01/22 04:39:26;;;;;;;3.30;1.30;;;;;;;;;;5052607;28;20412;-67
2024/01/22 04:41:51;;;;;;;2.83;1.30;;;;;;;;;;5052733;28;20435;-67
2024/01/22 04:44:16;;;;;;;3.00;1.40;;;;;;;;;;5051383;28;20401;-67
2024/01/22 04:46:42;;;;;;;2.92;1.33;;;;;;;;;;5052673;28;20803;-67
2024/01/22 04:49:08;;;;;;;2.87;1.30;;;;;;;;;;5052090;28;20429;-67
2024/01/22 04:51:33;;;;;;;3.50;1.30;;;;;;;;;;5051733;28;20500;-66
2024/01/22 04:53:59;;;;;;;2.78;1.38;;;;;;;;;;5051690;28;20477;-66
2024/01/22 04:56:24;;;;;;;2.17;1.30;;;;;;;;;;5051912;28;20396;-66
2024/01/22 04:58:49;;;;;;;2.63;1.20;;;;;;;;;;5051539;28;20412;-66
2024/01/22 05:01:15;;;;;;;2.17;1.20;;;;;;;;;;5051946;28;20440;-66
2024/01/22 05:03:40;;;;;;;4.10;1.40;;;;;;;;;;5052347;28;20847;-67
2024/01/22 05:06:05;;;;;;;3.53;1.23;;;;;;;;;;5032640;28;20905;-67
2024/01/22 05:08:31;;;;;;;2.70;1.10;;;;;;;;;;5021976;28;20483;-67
2024/01/22 05:10:56;;;;;;;2.67;1.30;;;;;;;;;;5023147;28;20411;-67
2024/01/22 05:13:22;;;;;;;2.70;1.20;;;;;;;;;;5021033;28;20391;-66
2024/01/22 05:15:47;;;;;;;2.60;1.20;;;;;;;;;;5040115;28;20431;-67
2024/01/22 05:18:13;;;;;;;3.97;1.23;;;;;;;;;;5036882;28;20433;-67
2024/01/22 05:20:38;;;;;;;2.50;1.30;;;;;;;;;;5032983;28;20401;-68
2024/01/22 05:23:03;;;;;;;2.35;1.30;;;;;;;;;;5020526;28;20423;-66
2024/01/22 05:25:28;;;;;;;2.90;1.10;;;;;;;;;;5017854;28;20399;-67
2024/01/22 05:27:54;;;;;;;2.93;1.20;;;;;;;;;;5021121;28;20415;-67
2024/01/22 05:30:19;;;;;;;3.00;1.20;;;;;;;;;;5021096;28;20954;-66
2024/01/22 05:32:44;;;;;;;4.37;1.30;;;;;;;;;;5021990;28;20407;-66
2024/01/22 05:35:10;;;;;;;3.10;1.20;;;;;;;;;;5020449;28;20404;-66
2024/01/22 05:37:35;;;;;;;2.80;1.17;;;;;;;;;;5036866;28;20840;-66
2024/01/22 05:40:00;;;;;;;2.17;0.90;;;;;;;;;;5018909;28;20403;-67
2024/01/22 05:42:25;;;;;;;2.73;1.00;;;;;;;;;;5013169;28;20403;-66
2024/01/22 05:44:51;;;;;;;3.03;1.37;;;;;;;;;;5013609;28;20433;-66
2024/01/22 05:47:16;;;;;;;1.57;1.00;;;;;;;;;;5015144;28;20453;-66
2024/01/22 05:49:41;;;;;;;3.65;1.20;;;;;;;;;;5021192;28;20398;-66
2024/01/22 05:52:07;;;;;;;3.97;1.10;;;;;;;;;;5020995;28;20793;-66
2024/01/22 05:54:32;;;;;;;2.97;1.17;;;;;;;;;;5020549;28;20399;-67
2024/01/22 05:56:57;;;;;;;2.23;1.13;;;;;;;;;;5021580;28;20414;-66
2024/01/22 05:59:23;;;;;;;3.00;1.00;;;;;;;;;;5020772;28;20840;-66
2024/01/22 06:01:48;;;;;;;2.20;1.00;;;;;;;;;;5020964;28;20407;-67
2024/01/22 06:04:13;;;;;;;1.97;1.00;;;;;;;;;;5013296;28;20458;-66
2024/01/22 06:06:38;;;;;;;2.10;0.90;;;;;;;;;;5012760;28;20407;-67
2024/01/22 06:09:04;;;;;;;2.60;1.10;;;;;;;;;;5011853;28;21020;-66
2024/01/22 06:11:30;;;;;;;3.20;1.10;;;;;;;;;;5020034;28;20891;-66
2024/01/22 06:13:56;;;;;;;2.03;0.90;;;;;;;;;;5021379;28;21216;-66
2024/01/22 06:16:21;;;;;;;2.87;1.00;;;;;;;;;;5019738;28;20475;-66
2024/01/22 06:18:48;;;;;;;1.90;0.90;;;;;;;;;;5021297;28;20403;-66
2024/01/22 06:21:13;;;;;;;2.15;0.85;;;;;;;;;;5020929;28;20395;-66
2024/01/22 06:23:39;;;;;;;4.60;0.90;;;;;;;;;;5039024;28;20416;-67
2024/01/22 06:26:05;;;;;;;3.50;0.90;;;;;;;;;;5035240;28;20401;-67
2024/01/22 06:28:30;;;;;;;2.13;0.73;;;;;;;;;;5018312;28;20414;-67
2024/01/22 06:30:56;;;;;;;1.97;0.80;;;;;;;;;;5011690;28;21143;-68
2024/01/22 06:33:21;;;;;;;3.15;0.77;;;;;;;;;;5017063;28;20441;-67
2024/01/22 06:35:47;;;;;;;4.67;2.73;;;;;;;;;;5021000;28;20406;-68
2024/01/22 06:38:12;;;;;;;4.57;1.53;;;;;;;;;;5019710;28;20815;-68
2024/01/22 06:40:38;;;;;;;6.50;5.50;;;;;;;;;;5020667;28;20426;-67
2024/01/22 06:43:03;;;;;;;13.40;11.90;;;;;;;;;;5039786;28;20531;-68
2024/01/22 06:45:28;;;;;;;3.80;2.13;;;;;;;;;;5026198;28;20391;-69
2024/01/22 06:47:54;;;;;;;4.17;1.50;;;;;;;;;;5025891;28;20401;-69
2024/01/22 06:50:19;;;;;;;4.18;2.13;;;;;;;;;;5031629;28;20637;-69
2024/01/22 06:52:45;;;;;;;6.73;3.77;;;;;;;;;;5031627;28;20398;-69
2024/01/22 06:55:11;;;;;;;8.10;7.22;;;;;;;;;;5033475;28;20409;-69
2024/01/22 06:57:36;;;;;;;5.73;2.77;;;;;;;;;;5040185;28;20416;-70
2024/01/22 07:00:07;;;;;;;4.57;1.67;;;;;;;;;;5038789;28;20402;-69
2024/01/22 07:02:32;;;;;;;3.78;1.33;;;;;;;;;;5048726;28;20385;-72
2024/01/22 07:04:57;;;;;;;3.43;1.20;;;;;;;;;;5049699;28;20743;-70
2024/01/22 07:07:23;;;;;;;4.57;3.40;;;;;;;;;;5049968;28;20436;-70
2024/01/22 07:09:48;;;;;;;6.97;6.27;;;;;;;;;;5050063;28;20389;-69
2024/01/22 07:12:13;;;;;;;5.40;2.43;;;;;;;;;;5047219;28;20418;-72
2024/01/22 07:14:39;;;;;;;3.90;1.77;;;;;;;;;;5049314;28;20393;-71
2024/01/22 07:17:04;;;;;;;3.87;1.60;;;;;;;;;;5052015;28;20429;-70
2024/01/22 07:19:29;;;;;;;6.10;4.73;;;;;;;;;;5052978;28;20396;-71
2024/01/22 07:21:55;;;;;;;6.07;2.27;;;;;;;;;;5053731;28;20405;-71
2024/01/22 07:24:20;;;;;;;3.60;1.47;;;;;;;;;;5053051;28;20455;-70
2024/01/22 07:26:46;;;;;;;7.53;4.37;;;;;;;;;;5051845;28;20805;-71
2024/01/22 07:29:12;;;;;;;10.57;9.47;;;;;;;;;;5053154;28;20825;-71
2024/01/22 07:31:37;;;;;;;4.07;1.30;;;;;;;;;;5053459;28;20405;-71
2024/01/22 07:34:02;;;;;;;4.43;2.47;;;;;;;;;;5052464;28;20402;-70
2024/01/22 07:36:28;;;;;;;8.90;6.90;;;;;;;;;;5052994;28;20395;-72
2024/01/22 07:38:56;;;;;;;7.97;5.17;;;;;;;;;;5053319;28;20476;-72
2024/01/22 07:41:21;;;;;;;9.93;6.50;;;;;;;;;;5051766;28;20390;-70
2024/01/22 07:43:47;;;;;;;7.50;2.80;;;;;;;;;;5053154;28;20420;-71
2024/01/22 07:46:12;;;;;;;8.40;4.30;;;;;;;;;;5052682;28;20395;-66
2024/01/22 07:48:37;;;;;;;7.07;1.80;;;;;;;;;;5053300;28;20393;-66
2024/01/22 07:51:03;;;;;;;6.53;1.50;;;;;;;;;;5037427;28;20488;-67
2024/01/22 07:53:28;;;;;;;9.57;3.47;;;;;;;;;;5035273;28;20401;-68
2024/01/22 07:55:53;;;;;;;10.20;2.77;;;;;;;;;;5051331;28;20405;-68
2024/01/22 07:58:19;;;;;;;5.57;1.30;;;;;;;;;;5052391;28;20397;-69
2024/01/22 08:00:44;;;;;;;6.10;1.40;;;;;;;;;;5053572;28;20400;-67
2024/01/22 08:03:09;;;;;;;6.30;1.30;;;;;;;;;;5051854;28;20394;-66
2024/01/22 08:05:35;;;;;;;6.40;1.30;;;;;;;;;;5053199;28;20806;-66
2024/01/22 08:08:00;;;;;;;6.47;1.43;;;;;;;;;;5046424;28;20473;-66
2024/01/22 08:10:25;;;;;;;7.57;1.50;;;;;;;;;;5052849;28;20413;-67
2024/01/22 08:12:51;;;;;;;6.68;1.40;;;;;;;;;;5052186;28;20450;-67
2024/01/22 08:15:17;;;;;;;7.13;1.40;;;;;;;;;;5051089;28;20531;-67
2024/01/22 08:17:43;;;;;;;9.55;2.13;;;;;;;;;;5051629;28;20421;-67
2024/01/22 08:20:08;;;;;;;8.23;1.58;;;;;;;;;;5051386;28;20903;-66
2024/01/22 08:22:33;;;;;;;8.93;1.70;;;;;;;;;;5052686;28;20403;-67
2024/01/22 08:24:59;;;;;;;9.67;2.30;;;;;;;;;;5060393;28;20406;-67
2024/01/22 08:27:24;;;;;;;9.13;1.90;;;;;;;;;;5051066;28;20432;-66
2024/01/22 08:29:49;;;;;;;9.73;1.70;;;;;;;;;;5051875;28;20394;-66
2024/01/22 08:32:15;;;;;;;7.60;1.70;;;;;;;;;;5052164;28;20424;-66
2024/01/22 08:34:41;;;;;;;7.53;1.97;;;;;;;;;;5052886;28;20904;-66
2024/01/22 08:37:06;;;;;;;10.05;2.05;;;;;;;;;;5051337;28;20421;-66
2024/01/22 08:39:32;;;;;;;10.77;2.17;;;;;;;;;;5052557;28;20424;-66
2024/01/22 08:41:57;;;;;;;8.87;1.73;;;;;;;;;;5052647;28;20807;-66
2024/01/22 08:44:22;;;;;;;8.00;1.80;;;;;;;;;;5051327;28;20741;-65
2024/01/22 08:46:47;;;;;;;7.43;1.90;;;;;;;;;;5052833;28;20400;-66
2024/01/22 08:49:13;;;;;;;8.60;1.77;;;;;;;;;;5051991;28;20484;-67
2024/01/22 08:51:38;;;;;;;8.73;1.90;;;;;;;;;;5051790;28;20450;-66
2024/01/22 08:54:03;;;;;;;9.20;3.10;;;;;;;;;;5051690;28;20405;-65
2024/01/22 08:56:29;;;;;;;9.50;3.00;;;;;;;;;;5052463;28;20424;-66
2024/01/22 08:58:54;;;;;;;10.10;3.22;;;;;;;;;;5051488;28;20394;-66
2024/01/22 09:01:20;;;;;;;7.83;1.83;;;;;;;;;;5051942;28;20429;-66
2024/01/22 09:03:45;;;;;;;8.70;1.70;;;;;;;;;;5052411;28;20400;-66
2024/01/22 09:06:10;;;;;;;7.35;1.60;;;;;;;;;;5051071;28;20452;-65
2024/01/22 09:08:36;;;;;;;8.13;1.90;;;;;;;;;;5051963;28;20401;-66
2024/01/22 09:11:02;;;;;;;9.03;2.47;;;;;;;;;;5051490;28;20421;-65
2024/01/22 09:13:27;;;;;;;9.45;2.30;;;;;;;;;;5051132;28;20788;-66
2024/01/22 09:15:53;;;;;;;11.63;2.73;;;;;;;;;;5052072;28;20480;-66
2024/01/22 09:18:18;;;;;;;10.18;2.47;;;;;;;;;;5050958;28;20483;-66
2024/01/22 09:20:43;;;;;;;10.47;2.40;;;;;;;;;;5051838;28;20881;-66
2024/01/22 09:23:09;;;;;;;11.20;2.93;;;;;;;;;;5050947;28;20409;-66
2024/01/22 09:25:34;;;;;;;11.13;2.90;;;;;;;;;;5051131;28;20416;-67
2024/01/22 09:28:02;;;;;;;11.95;2.30;;;;;;;;;;5051647;28;20869;-67
2024/01/22 09:30:27;;;;;;;9.65;2.20;;;;;;;;;;5051496;28;20417;-67
2024/01/22 09:32:57;;;;;;;10.33;2.43;;;;;;;;;;5050988;28;20957;-67
2024/01/22 09:35:22;;;;;;;9.35;2.10;;;;;;;;;;5051527;28;20768;-67
2024/01/22 09:37:47;;;;;;;9.57;2.30;;;;;;;;;;5051450;28;20398;-68
2024/01/22 09:40:13;;;;;;;10.97;2.70;;;;;;;;;;5049429;28;20397;-68
2024/01/22 09:42:39;;;;;;;10.32;2.10;;;;;;;;;;5034036;28;20405;-68
2024/01/22 09:45:04;;;;;;;11.45;3.13;;;;;;;;;;5050832;28;20401;-69
2024/01/22 09:47:30;;;;;;;10.87;2.47;;;;;;;;;;5033030;28;20773;-70
2024/01/22 09:49:55;;;;;;;9.77;3.63;;;;;;;;;;5051410;28;20427;-69
2024/01/22 09:52:20;;;;;;;11.00;3.40;;;;;;;;;;5050769;28;20409;-68
2024/01/22 09:54:46;;;;;;;7.93;1.80;;;;;;;;;;5033026;28;20459;-68
2024/01/22 09:57:17;;;;;;;9.48;2.20;;;;;;;;;;5032944;28;20547;-68
2024/01/22 09:59:43;;;;;;;9.10;2.17;;;;;;;;;;5033080;28;20374;-68
2024/01/22 10:02:08;;;;;;;10.23;2.50;;;;;;;;;;5049923;28;20413;-67
2024/01/22 10:04:33;;;;;;;10.03;2.10;;;;;;;;;;5016628;28;20896;-68
2024/01/22 10:07:00;;;;;;;9.50;2.47;;;;;;;;;;5050982;28;20447;-67
2024/01/22 10:09:25;;;;;;;10.48;2.25;;;;;;;;;;5032347;28;21003;-67
2024/01/22 10:11:50;;;;;;;11.40;2.37;;;;;;;;;;5051060;28;20413;-67
2024/01/22 10:14:15;;;;;;;9.83;2.20;;;;;;;;;;5050374;28;20397;-67
2024/01/22 10:16:41;;;;;;;10.40;1.93;;;;;;;;;;5050060;28;20405;-67
2024/01/22 10:19:08;;;;;;;10.65;2.05;;;;;;;;;;5050567;28;20455;-67
2024/01/22 10:21:35;;;;;;;10.13;2.17;;;;;;;;;;5050649;28;20389;-67
2024/01/22 10:24:01;;;;;;;12.20;2.40;;;;;;;;;;5049931;28;20444;-64
2024/01/22 10:26:27;;;;;;;9.93;2.40;;;;;;;;;;5033283;28;20390;-67
2024/01/22 10:28:53;;;;;;;9.85;2.40;;;;;;;;;;5050093;28;20432;-68
2024/01/22 10:31:18;;;;;;;11.50;2.70;;;;;;;;;;5050017;28;20448;-67
2024/01/22 10:33:43;;;;;;;13.80;2.90;;;;;;;;;;5050859;28;20397;-67
2024/01/22 10:36:14;;;;;;;10.63;2.47;;;;;;;;;;5049501;28;20425;-67
2024/01/22 10:38:39;;;;;;;9.57;2.10;;;;;;;;;;5033048;28;20411;-67
2024/01/22 10:41:07;;;;;;;7.90;2.23;;;;;;;;;;5050421;28;20397;-67
2024/01/22 10:43:32;;;;;;;13.20;2.55;;;;;;;;;;5032193;28;20393;-67
2024/01/22 10:45:58;;;;;;;12.70;2.57;;;;;;;;;;5050381;28;20401;-67
2024/01/22 10:48:24;;;;;;;10.93;2.80;;;;;;;;;;5050237;28;20777;-66
2024/01/22 10:50:49;;;;;;;11.52;2.55;;;;;;;;;;5051063;28;20827;-67
2024/01/22 10:53:15;;;;;;;12.38;2.60;;;;;;;;;;5054225;28;20393;-66
2024/01/22 10:55:41;;;;;;;10.47;2.40;;;;;;;;;;5054523;28;20392;-67
2024/01/22 10:58:14;;;;;;;12.33;2.37;;;;;;;;;;5035259;28;20941;-66
2024/01/22 11:00:43;;;;;;;10.55;2.22;;;;;;;;;;5034324;28;20444;-67
2024/01/22 11:03:08;;;;;;;12.73;2.67;;;;;;;;;;5036821;28;20573;-64
2024/01/22 11:05:34;;;;;;;12.18;2.58;;;;;;;;;;5035957;28;20893;-65
2024/01/22 11:07:59;;;;;;;12.67;2.87;;;;;;;;;;5053807;28;20765;-64
2024/01/22 11:10:25;;;;;;;14.02;2.75;;;;;;;;;;5035955;28;20393;-64
2024/01/22 11:12:50;;;;;;;12.73;2.77;;;;;;;;;;5053738;28;20394;-64
2024/01/22 11:15:15;;;;;;;13.83;2.70;;;;;;;;;;5053151;28;21054;-64
2024/01/22 11:17:41;;;;;;;15.27;3.33;;;;;;;;;;5053929;28;20413;-65
2024/01/22 11:20:14;;;;;;;17.17;5.80;;;;;;;;;;5052729;28;20904;-66
2024/01/22 11:22:40;;;;;;;16.13;5.60;;;;;;;;;;5053626;28;20476;-66
2024/01/22 11:25:09;;;;;;;20.70;7.40;;;;;;;;;;5052599;28;20429;-65
2024/01/22 11:27:36;;;;;;;23.80;11.27;;;;;;;;;;5036669;28;20393;-65
2024/01/22 11:30:21;;;;;;;17.20;3.97;;;;;;;;;;5053210;28;20389;-64
2024/01/22 11:32:47;;;;;;;18.70;3.72;;;;;;;;;;5052916;28;20412;-64
2024/01/22 11:35:12;;;;;;;20.53;4.10;;;;;;;;;;5035766;28;20405;-64
2024/01/22 11:37:38;;;;;;;17.27;3.83;;;;;;;;;;5053713;28;20473;-64
2024/01/22 11:40:06;;;;;;;20.93;3.80;;;;;;;;;;5052652;28;20829;-64
2024/01/22 11:42:31;;;;;;;19.33;4.30;;;;;;;;;;5053550;28;20480;-64
2024/01/22 11:44:58;;;;;;;17.10;4.00;;;;;;;;;;5053375;28;20497;-63
2024/01/22 11:47:24;;;;;;;19.85;3.72;;;;;;;;;;5052386;28;20401;-64
2024/01/22 11:49:50;;;;;;;19.83;4.30;;;;;;;;;;5053859;28;20483;-64
2024/01/22 11:52:17;;;;;;;21.03;4.43;;;;;;;;;;5035111;28;20415;-64
2024/01/22 11:54:53;;;;;;;18.65;4.00;;;;;;;;;;5035120;28;20400;-64
2024/01/22 11:57:18;;;;;;;19.87;4.07;;;;;;;;;;5057729;28;20438;-64
2024/01/22 11:59:59;;;;;;;19.88;4.68;;;;;;;;;;5038579;28;20420;-64
2024/01/22 12:02:24;;;;;;;18.27;3.80;;;;;;;;;;5054759;28;20439;-64
2024/01/22 12:05:10;;;;;;;15.90;3.97;;;;;;;;;;5053447;28;20405;-64
2024/01/22 12:07:37;;;;;;;19.27;3.92;;;;;;;;;;5051961;28;20488;-64
2024/01/22 12:10:04;;;;;;;22.40;4.95;;;;;;;;;;5052839;28;20398;-64
2024/01/22 12:12:29;;;;;;;15.07;3.30;;;;;;;;;;5053166;28;20409;-64
2024/01/22 12:14:55;;;;;;;18.45;3.90;;;;;;;;;;5052235;28;20389;-64
2024/01/22 12:17:20;;;;;;;18.10;3.80;;;;;;;;;;5052591;28;20476;-64
2024/01/22 12:19:47;;;;;;;20.15;4.25;;;;;;;;;;5052767;28;20968;-64
2024/01/22 12:22:13;;;;;;;17.50;4.43;;;;;;;;;;5051072;28;20908;-64
2024/01/22 12:24:38;;;;;;;17.47;3.67;;;;;;;;;;5048763;28;20413;-64
2024/01/22 12:27:03;;;;;;;18.85;4.47;;;;;;;;;;5052486;28;20389;-64
2024/01/22 12:29:28;;;;;;;19.07;4.10;;;;;;;;;;5054425;28;20384;-64
2024/01/22 12:32:02;;;;;;;19.87;4.13;;;;;;;;;;5058032;28;20571;-64
2024/01/22 12:34:27;;;;;;;22.20;4.57;;;;;;;;;;5052130;28;20416;-64
2024/01/22 12:36:52;;;;;;;18.63;4.00;;;;;;;;;;5051872;28;20765;-64
2024/01/22 12:39:19;;;;;;;21.57;4.13;;;;;;;;;;5052544;28;20764;-64
2024/01/22 12:41:44;;;;;;;21.60;4.75;;;;;;;;;;5035092;28;20386;-64
2024/01/22 12:44:12;;;;;;;22.17;4.23;;;;;;;;;;5051643;28;20405;-64
2024/01/22 12:46:38;;;;;;;18.25;4.10;;;;;;;;;;5052530;28;20413;-64
2024/01/22 12:49:03;;;;;;;21.37;4.00;;;;;;;;;;5051863;28;20402;-64
2024/01/22 12:51:29;;;;;;;19.25;4.28;;;;;;;;;;5051580;28;20822;-63
2024/01/22 12:53:54;;;;;;;21.30;4.93;;;;;;;;;;5052720;28;20792;-63
2024/01/22 12:56:19;;;;;;;19.47;4.30;;;;;;;;;;5051661;28;20477;-64
2024/01/22 12:58:44;;;;;;;19.43;4.40;;;;;;;;;;5051941;28;20411;-63
2024/01/22 13:01:11;;;;;;;22.67;4.30;;;;;;;;;;5061070;28;20457;-64
2024/01/22 13:03:36;;;;;;;24.73;4.65;;;;;;;;;;5033774;28;20542;-63
2024/01/22 13:06:02;;;;;;;21.75;4.45;;;;;;;;;;5051645;28;20488;-64
2024/01/22 13:08:27;;;;;;;19.20;4.23;;;;;;;;;;5056453;28;20459;-63
2024/01/22 13:10:52;;;;;;;22.07;4.60;;;;;;;;;;5051452;28;20456;-64
2024/01/22 13:13:17;;;;;;;20.57;4.30;;;;;;;;;;5050385;28;20896;-62
2024/01/22 13:15:43;;;;;;;23.20;4.87;;;;;;;;;;5051325;28;20401;-63
2024/01/22 13:18:08;;;;;;;19.77;4.78;;;;;;;;;;5050675;28;20444;-64
2024/01/22 13:20:33;;;;;;;22.80;4.50;;;;;;;;;;5051409;28;20397;-63
2024/01/22 13:22:59;;;;;;;22.30;4.27;;;;;;;;;;5051912;28;20821;-63
2024/01/22 13:25:24;;;;;;;20.30;4.40;;;;;;;;;;5050640;28;20389;-63
2024/01/22 13:27:49;;;;;;;21.80;4.70;;;;;;;;;;5051932;28;20447;-63
2024/01/22 13:30:16;;;;;;;21.83;4.15;;;;;;;;;;5051526;28;20409;-63
2024/01/22 13:32:41;;;;;;;21.50;6.40;;;;;;;;;;5050937;28;20393;-63
2024/01/22 13:35:07;;;;;;;23.03;5.97;;;;;;;;;;5050889;28;20498;-64
2024/01/22 13:37:33;;;;;;;26.27;6.03;;;;;;;;;;5051773;28;20797;-63
2024/01/22 13:39:58;;;;;;;20.35;5.50;;;;;;;;;;5051034;28;20462;-63
2024/01/22 13:42:24;;;;;;;41.50;14.97;;;;;;;;;;5051184;28;20948;-64
2024/01/22 13:44:50;;;;;;;26.67;7.93;;;;;;;;;;5051643;28;20405;-63
2024/01/22 13:47:16;;;;;;;30.93;10.10;;;;;;;;;;5050029;28;20405;-63
2024/01/22 13:49:41;;;;;;;41.33;16.23;;;;;;;;;;5051212;28;20441;-63
2024/01/22 13:52:07;;;;;;;38.83;13.97;;;;;;;;;;5050612;28;20900;-63
2024/01/22 13:54:32;;;;;;;48.22;17.98;;;;;;;;;;5050655;28;20401;-63
2024/01/22 13:56:58;;;;;;;55.03;24.07;;;;;;;;;;5051331;28;20393;-63
2024/01/22 13:59:23;;;;;;;29.90;10.47;;;;;;;;;;5033026;28;20891;-63
2024/01/22 14:01:50;;;;;;;19.97;4.60;;;;;;;;;;5053825;28;20907;-63
2024/01/22 14:04:15;;;;;;;18.80;4.20;;;;;;;;;;5050816;28;20417;-63
2024/01/22 14:06:41;;;;;;;19.15;4.07;;;;;;;;;;5050205;28;20455;-63
2024/01/22 14:09:06;;;;;;;21.93;4.60;;;;;;;;;;5050755;28;20402;-63
2024/01/22 14:11:32;;;;;;;27.07;13.97;;;;;;;;;;5051126;28;20476;-63
2024/01/22 14:13:57;;;;;;;23.30;6.20;;;;;;;;;;5050190;28;20409;-63
2024/01/22 14:16:22;;;;;;;23.30;5.80;;;;;;;;;;5050396;28;20473;-63
2024/01/22 14:18:47;;;;;;;19.43;6.70;;;;;;;;;;5051157;28;20406;-63
2024/01/22 14:21:13;;;;;;;19.73;4.63;;;;;;;;;;5049217;28;20509;-63
2024/01/22 14:23:38;;;;;;;20.87;4.60;;;;;;;;;;5051118;28;20417;-63
2024/01/22 14:26:03;;;;;;;21.83;6.37;;;;;;;;;;5049897;28;20455;-63
2024/01/22 14:28:29;;;;;;;21.65;5.07;;;;;;;;;;5049967;28;20443;-63